createdAt,value
2022-11-29T00:00:06.072Z,99266.08
2022-11-29T00:00:16.077Z,99269.21
2022-11-29T00:00:26.038Z,99259.16
2022-11-29T00:00:35.981Z,99263.59
2022-11-29T00:00:45.959Z,99264.75
2022-11-29T00:00:55.998Z,99266.34
2022-11-29T00:01:06.046Z,99269.02
2022-11-29T00:01:16.015Z,99265.52
2022-11-29T00:01:26.024Z,99267.75
2022-11-29T00:01:35.987Z,99259.51
2022-11-29T00:01:46.042Z,99265.92
2022-11-29T00:01:56.141Z,99269.77
2022-11-29T00:02:06.186Z,99263.05
2022-11-29T00:02:16.159Z,99268.27
2022-11-29T00:02:26.115Z,99271.09
2022-11-29T00:02:36.124Z,99266.38
2022-11-29T00:02:46.137Z,99270.02
2022-11-29T00:02:56.251Z,99267.09
2022-11-29T00:03:06.080Z,99265.98
2022-11-29T00:03:16.052Z,99269.77
2022-11-29T00:03:26.061Z,99270.88
2022-11-29T00:03:36.086Z,99270.96
2022-11-29T00:03:46.079Z,99265.97
2022-11-29T00:03:56.021Z,99269.48
2022-11-29T00:04:06.074Z,99266.74
2022-11-29T00:04:16.049Z,99268.97
2022-11-29T00:04:26.056Z,99268.25
2022-11-29T00:04:36.024Z,99267.08
2022-11-29T00:04:46.160Z,99268.31
2022-11-29T00:04:56.007Z,99272.36
2022-11-29T00:05:06.072Z,99264.53
2022-11-29T00:05:16.031Z,99265.62
2022-11-29T00:05:26.048Z,99263.16
2022-11-29T00:05:36.051Z,99264.14
2022-11-29T00:05:46.046Z,99262.30
2022-11-29T00:05:56.037Z,99266.46
2022-11-29T00:06:06.005Z,99266.95
2022-11-29T00:06:15.977Z,99269.72
2022-11-29T00:06:26.059Z,99265.72
2022-11-29T00:06:35.977Z,99267.20
2022-11-29T00:06:46.005Z,99264.23
2022-11-29T00:06:55.957Z,99264.67
2022-11-29T00:07:05.949Z,99269.11
2022-11-29T00:07:16.019Z,99268.62
2022-11-29T00:07:26.028Z,99265.98
2022-11-29T00:07:36.090Z,99267.69
2022-11-29T00:07:46.066Z,99269.27
2022-11-29T00:07:56.093Z,99268.62
2022-11-29T00:08:06.014Z,99268.45
2022-11-29T00:08:16.007Z,99271.03
2022-11-29T00:08:25.971Z,99265.12
2022-11-29T00:08:36.081Z,99265.78
2022-11-29T00:08:46.015Z,99267.67
2022-11-29T00:08:56.039Z,99269.39
2022-11-29T00:09:06.056Z,99271.09
2022-11-29T00:09:16.052Z,99268.08
2022-11-29T00:09:26.077Z,99265.72
2022-11-29T00:09:36.036Z,99267.61
2022-11-29T00:09:46.008Z,99265.33
2022-11-29T00:09:56.102Z,99269.11
2022-11-29T00:10:06.029Z,99267.14
2022-11-29T00:10:16.083Z,99264.41
2022-11-29T00:10:26.078Z,99266.15
2022-11-29T00:10:35.998Z,99267.03
2022-11-29T00:10:46.085Z,99266.59
2022-11-29T00:10:56.005Z,99266.59
2022-11-29T00:11:06.035Z,99266.27
2022-11-29T00:11:15.975Z,99266.52
2022-11-29T00:11:26.066Z,99263.41
2022-11-29T00:11:36.051Z,99267.80
2022-11-29T00:11:45.958Z,99267.28
2022-11-29T00:11:56.061Z,99270.48
2022-11-29T00:12:06.064Z,99269.64
2022-11-29T00:12:15.992Z,99269.81
2022-11-29T00:12:25.994Z,99266.74
2022-11-29T00:12:36.055Z,99266.61
2022-11-29T00:12:45.994Z,99266.17
2022-11-29T00:12:56.072Z,99265.68
2022-11-29T00:13:05.993Z,99270.17
2022-11-29T00:13:16.075Z,99272.15
2022-11-29T00:13:26.063Z,99265.58
2022-11-29T00:13:36.063Z,99270.77
2022-11-29T00:13:45.998Z,99265.08
2022-11-29T00:13:56.000Z,99265.33
2022-11-29T00:14:05.967Z,99262.53
2022-11-29T00:14:16.056Z,99266.15
2022-11-29T00:14:25.985Z,99269.69
2022-11-29T00:14:35.952Z,99261.88
2022-11-29T00:14:46.513Z,99266.59
2022-11-29T00:14:55.990Z,99263.93
2022-11-29T00:15:06.033Z,99270.94
2022-11-29T00:15:15.968Z,99268.97
2022-11-29T00:15:26.075Z,99265.19
2022-11-29T00:15:35.960Z,99267.22
2022-11-29T00:15:46.025Z,99262.45
2022-11-29T00:15:56.044Z,99265.98
2022-11-29T00:16:06.008Z,99262.78
2022-11-29T00:16:15.977Z,99265.57
2022-11-29T00:16:26.117Z,99262.28
2022-11-29T00:16:36.105Z,99264.96
2022-11-29T00:16:46.121Z,99264.20
2022-11-29T00:16:56.018Z,99257.89
2022-11-29T00:17:06.015Z,99265.62
2022-11-29T00:17:16.084Z,99264.46
2022-11-29T00:17:25.988Z,99266.54
2022-11-29T00:17:36.018Z,99260.02
2022-11-29T00:17:46.059Z,99262.34
2022-11-29T00:17:56.021Z,99265.81
2022-11-29T00:18:06.032Z,99259.73
2022-11-29T00:18:16.046Z,99260.98
2022-11-29T00:18:26.017Z,99262.41
2022-11-29T00:18:36.008Z,99261.33
2022-11-29T00:18:46.027Z,99261.94
2022-11-29T00:18:56.030Z,99262.73
2022-11-29T00:19:05.977Z,99260.78
2022-11-29T00:19:16.044Z,99260.75
2022-11-29T00:19:26.046Z,99261.73
2022-11-29T00:19:36.085Z,99264.75
2022-11-29T00:19:45.955Z,99267.05
2022-11-29T00:19:56.002Z,99259.60
2022-11-29T00:20:05.973Z,99261.58
2022-11-29T00:20:16.026Z,99260.86
2022-11-29T00:20:25.958Z,99262.07
2022-11-29T00:20:35.955Z,99261.77
2022-11-29T00:20:45.998Z,99262.83
2022-11-29T00:20:55.990Z,99262.11
2022-11-29T00:21:05.955Z,99263.66
2022-11-29T00:21:16.042Z,99263.10
2022-11-29T00:21:26.044Z,99259.81
2022-11-29T00:21:36.011Z,99258.47
2022-11-29T00:21:46.026Z,99259.73
2022-11-29T00:21:55.996Z,99258.98
2022-11-29T00:22:06.047Z,99256.40
2022-11-29T00:22:16.037Z,99257.79
2022-11-29T00:22:25.990Z,99259.93
2022-11-29T00:22:36.070Z,99255.76
2022-11-29T00:22:46.042Z,99254.83
2022-11-29T00:22:56.036Z,99253.35
2022-11-29T00:23:05.981Z,99258.45
2022-11-29T00:23:16.078Z,99263.02
2022-11-29T00:23:26.073Z,99255.08
2022-11-29T00:23:36.096Z,99251.87
2022-11-29T00:23:45.961Z,99259.67
2022-11-29T00:23:55.996Z,99260.26
2022-11-29T00:24:06.043Z,99253.35
2022-11-29T00:24:16.038Z,99255.56
2022-11-29T00:24:26.008Z,99259.05
2022-11-29T00:24:36.041Z,99255.12
2022-11-29T00:24:46.347Z,99252.30
2022-11-29T00:24:55.950Z,99256.41
2022-11-29T00:25:05.975Z,99257.79
2022-11-29T00:25:15.986Z,99258.53
2022-11-29T00:25:26.079Z,99252.61
2022-11-29T00:25:36.001Z,99250.14
2022-11-29T00:25:45.955Z,99255.80
2022-11-29T00:25:56.068Z,99256.99
2022-11-29T00:26:05.996Z,99259.45
2022-11-29T00:26:15.988Z,99259.93
2022-11-29T00:26:25.955Z,99260.75
2022-11-29T00:26:36.027Z,99259.25
2022-11-29T00:26:46.002Z,99259.89
2022-11-29T00:26:55.997Z,99257.92
2022-11-29T00:27:06.036Z,99256.69
2022-11-29T00:27:15.973Z,99258.83
2022-11-29T00:27:25.969Z,99255.19
2022-11-29T00:27:36.057Z,99255.13
2022-11-29T00:27:46.081Z,99256.41
2022-11-29T00:27:56.059Z,99255.58
2022-11-29T00:28:06.026Z,99256.66
2022-11-29T00:28:16.019Z,99256.81
2022-11-29T00:28:25.950Z,99256.58
2022-11-29T00:28:35.994Z,99262.33
2022-11-29T00:28:46.036Z,99257.40
2022-11-29T00:28:55.979Z,99258.01
2022-11-29T00:29:06.067Z,99260.31
2022-11-29T00:29:16.071Z,99260.23
2022-11-29T00:29:26.011Z,99258.31
2022-11-29T00:29:36.050Z,99258.23
2022-11-29T00:29:46.025Z,99258.90
2022-11-29T00:29:56.072Z,99258.11
2022-11-29T00:30:06.005Z,99254.98
2022-11-29T00:30:16.085Z,99255.45
2022-11-29T00:30:26.133Z,99254.30
2022-11-29T00:30:36.105Z,99258.98
2022-11-29T00:30:46.116Z,99255.59
2022-11-29T00:30:56.059Z,99259.31
2022-11-29T00:31:06.095Z,99258.71
2022-11-29T00:31:16.097Z,99257.89
2022-11-29T00:31:25.977Z,99261.34
2022-11-29T00:31:36.015Z,99259.97
2022-11-29T00:31:46.056Z,99258.74
2022-11-29T00:31:55.992Z,99259.40
2022-11-29T00:32:06.036Z,99264.49
2022-11-29T00:32:16.031Z,99261.59
2022-11-29T00:32:26.008Z,99263.84
2022-11-29T00:32:36.018Z,99258.63
2022-11-29T00:32:46.065Z,99257.65
2022-11-29T00:32:56.060Z,99261.27
2022-11-29T00:33:06.065Z,99256.91
2022-11-29T00:33:16.063Z,99258.06
2022-11-29T00:33:26.083Z,99259.21
2022-11-29T00:33:35.958Z,99260.31
2022-11-29T00:33:46.032Z,99259.05
2022-11-29T00:33:55.952Z,99255.92
2022-11-29T00:34:05.975Z,99254.01
2022-11-29T00:34:15.956Z,99257.56
2022-11-29T00:34:25.953Z,99256.09
2022-11-29T00:34:36.495Z,99255.59
2022-11-29T00:34:46.274Z,99255.41
2022-11-29T00:34:59.365Z,99255.45
2022-11-29T00:35:09.718Z,99257.89
2022-11-29T00:35:16.045Z,99255.64
2022-11-29T00:35:26.064Z,99258.90
2022-11-29T00:35:36.083Z,99256.87
2022-11-29T00:35:45.970Z,99255.94
2022-11-29T00:35:56.069Z,99257.33
2022-11-29T00:36:06.073Z,99258.51
2022-11-29T00:36:15.979Z,99256.12
2022-11-29T00:36:26.045Z,99256.84
2022-11-29T00:36:36.017Z,99256.20
2022-11-29T00:36:46.029Z,99257.82
2022-11-29T00:36:55.966Z,99256.38
2022-11-29T00:37:06.083Z,99254.05
2022-11-29T00:37:15.955Z,99259.09
2022-11-29T00:37:26.017Z,99257.73
2022-11-29T00:37:36.002Z,99252.95
2022-11-29T00:37:45.959Z,99257.89
2022-11-29T00:37:56.022Z,99257.75
2022-11-29T00:38:05.997Z,99258.71
2022-11-29T00:38:15.979Z,99254.19
2022-11-29T00:38:26.018Z,99259.72
2022-11-29T00:38:35.983Z,99255.12
2022-11-29T00:38:45.973Z,99250.08
2022-11-29T00:38:56.034Z,99255.67
2022-11-29T00:39:06.039Z,99251.32
2022-11-29T00:39:16.056Z,99255.84
2022-11-29T00:39:26.008Z,99257.81
2022-11-29T00:39:36.009Z,99252.55
2022-11-29T00:39:46.094Z,99253.38
2022-11-29T00:39:55.954Z,99255.08
2022-11-29T00:40:05.996Z,99254.19
2022-11-29T00:40:16.071Z,99254.19
2022-11-29T00:40:26.053Z,99253.27
2022-11-29T00:40:35.993Z,99251.81
2022-11-29T00:40:45.991Z,99253.87
2022-11-29T00:40:56.015Z,99253.20
2022-11-29T00:41:05.949Z,99250.80
2022-11-29T00:41:16.494Z,99255.43
2022-11-29T00:41:26.021Z,99254.94
2022-11-29T00:41:36.040Z,99256.25
2022-11-29T00:41:46.069Z,99253.84
2022-11-29T00:41:56.053Z,99254.48
2022-11-29T00:42:06.018Z,99249.88
2022-11-29T00:42:16.002Z,99252.28
2022-11-29T00:42:25.981Z,99253.60
2022-11-29T00:42:36.069Z,99252.18
2022-11-29T00:42:46.031Z,99255.63
2022-11-29T00:42:56.017Z,99254.16
2022-11-29T00:43:05.981Z,99252.02
2022-11-29T00:43:16.006Z,99250.10
2022-11-29T00:43:25.978Z,99252.59
2022-11-29T00:43:36.000Z,99254.92
2022-11-29T00:43:45.988Z,99253.33
2022-11-29T00:44:29.904Z,99254.59
2022-11-29T00:44:30.099Z,99251.50
2022-11-29T00:44:30.308Z,99252.09
2022-11-29T00:44:30.522Z,99252.98
2022-11-29T00:44:35.972Z,99257.23
2022-11-29T00:44:46.146Z,99253.67
2022-11-29T00:44:56.009Z,99254.30
2022-11-29T00:45:06.011Z,99252.59
2022-11-29T00:45:16.058Z,99248.78
2022-11-29T00:45:25.965Z,99250.15
2022-11-29T00:45:36.031Z,99256.25
2022-11-29T00:45:46.022Z,99253.95
2022-11-29T00:45:56.130Z,99249.73
2022-11-29T00:46:06.093Z,99252.64
2022-11-29T00:46:15.995Z,99252.11
2022-11-29T00:46:26.109Z,99252.47
2022-11-29T00:46:36.018Z,99257.16
2022-11-29T00:46:46.038Z,99255.27
2022-11-29T00:46:55.986Z,99257.98
2022-11-29T00:47:05.990Z,99253.12
2022-11-29T00:47:16.045Z,99252.05
2022-11-29T00:47:26.047Z,99257.23
2022-11-29T00:47:35.998Z,99255.20
2022-11-29T00:47:45.963Z,99256.08
2022-11-29T00:47:55.979Z,99253.80
2022-11-29T00:48:06.005Z,99249.59
2022-11-29T00:48:16.022Z,99249.42
2022-11-29T00:48:25.967Z,99256.44
2022-11-29T00:48:36.089Z,99256.25
2022-11-29T00:48:46.077Z,99250.19
2022-11-29T00:48:56.091Z,99252.05
2022-11-29T00:49:06.021Z,99254.96
2022-11-29T00:49:16.038Z,99254.27
2022-11-29T00:49:26.042Z,99250.58
2022-11-29T00:49:36.006Z,99249.17
2022-11-29T00:49:46.051Z,99251.20
2022-11-29T00:49:56.035Z,99249.34
2022-11-29T00:50:06.028Z,99248.89
2022-11-29T00:50:16.029Z,99248.23
2022-11-29T00:50:26.075Z,99248.31
2022-11-29T00:50:36.028Z,99248.48
2022-11-29T00:50:46.089Z,99251.08
2022-11-29T00:50:56.043Z,99248.72
2022-11-29T00:51:06.064Z,99248.06
2022-11-29T00:51:16.037Z,99250.55
2022-11-29T00:51:26.067Z,99247.16
2022-11-29T00:51:36.005Z,99253.34
2022-11-29T00:51:46.005Z,99255.17
2022-11-29T00:51:56.016Z,99247.44
2022-11-29T00:52:06.043Z,99250.97
2022-11-29T00:52:16.019Z,99250.36
2022-11-29T00:52:25.986Z,99250.86
2022-11-29T00:52:36.041Z,99252.92
2022-11-29T00:52:46.051Z,99254.50
2022-11-29T00:52:55.986Z,99251.88
2022-11-29T00:53:05.972Z,99246.68
2022-11-29T00:53:15.956Z,99252.27
2022-11-29T00:53:25.983Z,99249.80
2022-11-29T00:53:35.978Z,99249.74
2022-11-29T00:53:46.077Z,99255.66
2022-11-29T00:53:55.998Z,99252.98
2022-11-29T00:54:06.070Z,99253.03
2022-11-29T00:54:16.083Z,99252.70
2022-11-29T00:54:26.047Z,99252.62
2022-11-29T00:54:36.076Z,99249.80
2022-11-29T00:54:46.257Z,99251.55
2022-11-29T00:54:56.028Z,99255.74
2022-11-29T00:55:06.096Z,99247.27
2022-11-29T00:55:16.021Z,99250.97
2022-11-29T00:55:26.086Z,99253.22
2022-11-29T00:55:36.085Z,99251.55
2022-11-29T00:55:45.992Z,99251.22
2022-11-29T00:55:56.014Z,99248.71
2022-11-29T00:56:05.985Z,99252.70
2022-11-29T00:56:16.092Z,99251.86
2022-11-29T00:56:26.000Z,99250.05
2022-11-29T00:56:35.958Z,99249.19
2022-11-29T00:56:46.068Z,99249.62
2022-11-29T00:56:55.986Z,99245.48
2022-11-29T00:57:05.957Z,99250.34
2022-11-29T00:57:15.968Z,99251.98
2022-11-29T00:57:25.955Z,99249.52
2022-11-29T00:57:36.031Z,99249.02
2022-11-29T00:57:46.077Z,99254.23
2022-11-29T00:57:55.974Z,99253.79
2022-11-29T00:58:06.077Z,99250.99
2022-11-29T00:58:16.077Z,99250.86
2022-11-29T00:58:26.056Z,99251.48
2022-11-29T00:58:36.001Z,99245.76
2022-11-29T00:58:46.024Z,99254.31
2022-11-29T00:58:55.994Z,99250.84
2022-11-29T00:59:06.055Z,99252.83
2022-11-29T00:59:16.065Z,99244.52
2022-11-29T00:59:26.002Z,99242.22
2022-11-29T00:59:36.082Z,99245.59
2022-11-29T00:59:45.966Z,99243.45
2022-11-29T00:59:56.022Z,99244.06
2022-11-29T01:00:05.979Z,99250.81
2022-11-29T01:00:16.029Z,99249.66
2022-11-29T01:00:26.028Z,99250.23
2022-11-29T01:00:36.016Z,99242.66
2022-11-29T01:00:46.004Z,99249.12
2022-11-29T01:00:56.045Z,99246.41
2022-11-29T01:01:06.170Z,99243.05
2022-11-29T01:01:16.033Z,99245.00
2022-11-29T01:01:26.107Z,99248.23
2022-11-29T01:01:36.056Z,99248.73
2022-11-29T01:01:46.010Z,99249.33
2022-11-29T01:01:56.269Z,99246.86
2022-11-29T01:02:06.041Z,99246.00
2022-11-29T01:02:16.076Z,99247.09
2022-11-29T01:02:26.059Z,99245.21
2022-11-29T01:02:36.114Z,99245.84
2022-11-29T01:02:46.084Z,99245.05
2022-11-29T01:02:56.031Z,99249.82
2022-11-29T01:03:06.075Z,99250.81
2022-11-29T01:03:15.974Z,99245.33
2022-11-29T01:03:26.015Z,99254.41
2022-11-29T01:03:35.984Z,99252.59
2022-11-29T01:03:46.010Z,99255.78
2022-11-29T01:03:56.015Z,99251.27
2022-11-29T01:04:06.087Z,99253.80
2022-11-29T01:04:16.061Z,99254.03
2022-11-29T01:04:25.960Z,99255.00
2022-11-29T01:04:36.017Z,99248.77
2022-11-29T01:04:46.313Z,99253.84
2022-11-29T01:04:55.995Z,99251.22
2022-11-29T01:05:06.018Z,99259.60
2022-11-29T01:05:16.088Z,99254.37
2022-11-29T01:05:26.051Z,99257.62
2022-11-29T01:05:36.015Z,99250.31
2022-11-29T01:05:45.971Z,99254.86
2022-11-29T01:05:55.981Z,99251.88
2022-11-29T01:06:06.046Z,99254.98
2022-11-29T01:06:16.018Z,99253.42
2022-11-29T01:06:26.064Z,99250.88
2022-11-29T01:06:36.048Z,99255.72
2022-11-29T01:06:46.055Z,99255.06
2022-11-29T01:06:55.977Z,99258.13
2022-11-29T01:07:06.076Z,99254.47
2022-11-29T01:07:16.152Z,99254.90
2022-11-29T01:07:26.027Z,99255.06
2022-11-29T01:07:36.052Z,99253.86
2022-11-29T01:07:46.054Z,99253.20
2022-11-29T01:07:56.007Z,99251.39
2022-11-29T01:08:06.018Z,99253.03
2022-11-29T01:08:15.989Z,99252.43
2022-11-29T01:08:25.965Z,99251.55
2022-11-29T01:08:35.986Z,99253.20
2022-11-29T01:08:46.002Z,99256.66
2022-11-29T01:08:55.980Z,99252.49
2022-11-29T01:09:06.060Z,99255.97
2022-11-29T01:09:16.030Z,99254.41
2022-11-29T01:09:26.055Z,99255.06
2022-11-29T01:09:36.081Z,99252.33
2022-11-29T01:09:45.968Z,99252.83
2022-11-29T01:09:55.958Z,99253.97
2022-11-29T01:10:05.973Z,99252.09
2022-11-29T01:10:15.998Z,99255.98
2022-11-29T01:10:25.965Z,99252.92
2022-11-29T01:10:35.959Z,99249.03
2022-11-29T01:10:46.067Z,99249.95
2022-11-29T01:10:56.044Z,99248.22
2022-11-29T01:11:05.969Z,99246.27
2022-11-29T01:11:15.969Z,99248.81
2022-11-29T01:11:26.024Z,99250.89
2022-11-29T01:11:36.040Z,99252.06
2022-11-29T01:11:45.953Z,99254.20
2022-11-29T01:11:56.080Z,99251.38
2022-11-29T01:12:05.966Z,99249.78
2022-11-29T01:12:16.005Z,99254.28
2022-11-29T01:12:26.009Z,99251.92
2022-11-29T01:12:36.024Z,99250.69
2022-11-29T01:12:46.012Z,99249.70
2022-11-29T01:12:56.059Z,99251.39
2022-11-29T01:13:06.080Z,99248.81
2022-11-29T01:13:16.060Z,99250.69
2022-11-29T01:13:26.040Z,99253.80
2022-11-29T01:13:36.111Z,99253.15
2022-11-29T01:13:45.987Z,99253.04
2022-11-29T01:13:56.072Z,99252.34
2022-11-29T01:14:06.030Z,99249.20
2022-11-29T01:14:15.970Z,99249.97
2022-11-29T01:14:26.047Z,99246.16
2022-11-29T01:14:36.043Z,99250.48
2022-11-29T01:14:46.337Z,99253.39
2022-11-29T01:14:55.962Z,99252.51
2022-11-29T01:15:06.056Z,99258.38
2022-11-29T01:15:15.990Z,99251.38
2022-11-29T01:15:26.029Z,99250.97
2022-11-29T01:15:36.023Z,99250.88
2022-11-29T01:15:46.055Z,99250.33
2022-11-29T01:15:55.984Z,99255.16
2022-11-29T01:16:06.085Z,99258.28
2022-11-29T01:16:16.221Z,99251.28
2022-11-29T01:16:26.109Z,99251.98
2022-11-29T01:16:36.096Z,99256.60
2022-11-29T01:16:46.047Z,99259.55
2022-11-29T01:16:56.043Z,99250.22
2022-11-29T01:17:06.023Z,99250.49
2022-11-29T01:17:16.000Z,99251.05
2022-11-29T01:17:25.998Z,99257.13
2022-11-29T01:17:35.980Z,99259.38
2022-11-29T01:17:46.002Z,99257.88
2022-11-29T01:17:56.106Z,99260.92
2022-11-29T01:18:06.021Z,99257.73
2022-11-29T01:18:16.061Z,99256.75
2022-11-29T01:18:26.044Z,99262.69
2022-11-29T01:18:36.011Z,99255.59
2022-11-29T01:18:45.986Z,99263.84
2022-11-29T01:18:55.955Z,99260.34
2022-11-29T01:19:06.021Z,99259.70
2022-11-29T01:19:15.982Z,99261.48
2022-11-29T01:19:25.998Z,99259.21
2022-11-29T01:19:35.978Z,99263.64
2022-11-29T01:19:50.578Z,99261.70
2022-11-29T01:19:55.986Z,99259.37
2022-11-29T01:20:06.029Z,99259.89
2022-11-29T01:20:16.054Z,99260.95
2022-11-29T01:20:26.078Z,99263.64
2022-11-29T01:20:35.975Z,99264.91
2022-11-29T01:20:45.967Z,99258.88
2022-11-29T01:20:55.972Z,99259.86
2022-11-29T01:21:06.080Z,99263.91
2022-11-29T01:21:16.115Z,99263.67
2022-11-29T01:21:25.995Z,99261.34
2022-11-29T01:21:36.089Z,99260.52
2022-11-29T01:21:46.014Z,99265.17
2022-11-29T01:21:55.958Z,99267.09
2022-11-29T01:22:06.007Z,99262.69
2022-11-29T01:22:16.042Z,99263.84
2022-11-29T01:22:25.957Z,99260.86
2022-11-29T01:22:35.956Z,99265.31
2022-11-29T01:22:45.951Z,99263.12
2022-11-29T01:22:56.070Z,99260.69
2022-11-29T01:23:05.976Z,99265.47
2022-11-29T01:23:16.072Z,99262.02
2022-11-29T01:23:26.052Z,99261.20
2022-11-29T01:23:36.050Z,99263.50
2022-11-29T01:23:45.948Z,99263.67
2022-11-29T01:23:56.056Z,99261.19
2022-11-29T01:24:05.967Z,99261.16
2022-11-29T01:24:16.006Z,99261.52
2022-11-29T01:24:26.034Z,99266.02
2022-11-29T01:24:36.088Z,99259.83
2022-11-29T01:24:46.382Z,99261.08
2022-11-29T01:24:56.014Z,99256.91
2022-11-29T01:25:05.961Z,99265.03
2022-11-29T01:25:16.010Z,99266.84
2022-11-29T01:25:26.002Z,99265.93
2022-11-29T01:25:36.004Z,99265.85
2022-11-29T01:25:46.079Z,99261.14
2022-11-29T01:25:55.978Z,99261.50
2022-11-29T01:26:06.053Z,99262.56
2022-11-29T01:26:16.046Z,99263.46
2022-11-29T01:26:26.051Z,99267.83
2022-11-29T01:26:35.998Z,99265.85
2022-11-29T01:26:45.978Z,99261.47
2022-11-29T01:26:56.032Z,99268.98
2022-11-29T01:27:05.981Z,99267.11
2022-11-29T01:27:16.000Z,99268.39
2022-11-29T01:27:25.979Z,99266.67
2022-11-29T01:27:36.014Z,99267.97
2022-11-29T01:27:45.998Z,99270.02
2022-11-29T01:27:56.038Z,99267.31
2022-11-29T01:28:05.998Z,99265.73
2022-11-29T01:28:16.060Z,99263.84
2022-11-29T01:28:26.060Z,99266.72
2022-11-29T01:28:36.074Z,99270.38
2022-11-29T01:28:46.049Z,99267.05
2022-11-29T01:28:55.978Z,99268.47
2022-11-29T01:29:06.015Z,99266.72
2022-11-29T01:29:15.987Z,99264.58
2022-11-29T01:29:26.013Z,99266.27
2022-11-29T01:29:36.062Z,99264.76
2022-11-29T01:29:46.071Z,99267.55
2022-11-29T01:29:56.002Z,99269.88
2022-11-29T01:30:05.960Z,99266.89
2022-11-29T01:30:15.970Z,99268.16
2022-11-29T01:30:26.120Z,99269.97
2022-11-29T01:30:36.069Z,99268.16
2022-11-29T01:30:46.132Z,99266.95
2022-11-29T01:30:56.089Z,99271.23
2022-11-29T01:31:06.064Z,99268.09
2022-11-29T01:31:16.076Z,99271.57
2022-11-29T01:31:26.072Z,99269.34
2022-11-29T01:31:36.088Z,99264.47
2022-11-29T01:31:46.069Z,99266.71
2022-11-29T01:31:56.011Z,99271.59
2022-11-29T01:32:06.074Z,99269.61
2022-11-29T01:32:15.973Z,99270.41
2022-11-29T01:32:26.069Z,99270.73
2022-11-29T01:32:36.009Z,99268.93
2022-11-29T01:32:46.036Z,99268.81
2022-11-29T01:32:56.052Z,99275.91
2022-11-29T01:33:06.047Z,99272.42
2022-11-29T01:33:15.985Z,99269.27
2022-11-29T01:33:25.974Z,99271.77
2022-11-29T01:33:35.985Z,99273.82
2022-11-29T01:33:46.003Z,99275.03
2022-11-29T01:33:56.071Z,99269.47
2022-11-29T01:34:05.976Z,99275.91
2022-11-29T01:34:16.006Z,99275.06
2022-11-29T01:34:25.957Z,99270.84
2022-11-29T01:34:35.964Z,99272.71
2022-11-29T01:34:46.318Z,99274.03
2022-11-29T01:34:56.079Z,99274.03
2022-11-29T01:35:06.069Z,99274.22
2022-11-29T01:35:16.065Z,99271.90
2022-11-29T01:35:26.018Z,99277.46
2022-11-29T01:35:35.974Z,99275.27
2022-11-29T01:35:45.956Z,99275.51
2022-11-29T01:35:55.973Z,99271.06
2022-11-29T01:36:06.068Z,99277.02
2022-11-29T01:36:16.061Z,99267.77
2022-11-29T01:36:26.062Z,99272.53
2022-11-29T01:36:35.994Z,99279.27
2022-11-29T01:36:46.031Z,99271.85
2022-11-29T01:36:55.986Z,99273.66
2022-11-29T01:37:06.079Z,99274.98
2022-11-29T01:37:16.091Z,99271.72
2022-11-29T01:37:26.079Z,99273.16
2022-11-29T01:37:36.084Z,99277.86
2022-11-29T01:37:46.043Z,99275.14
2022-11-29T01:37:56.042Z,99274.20
2022-11-29T01:38:05.950Z,99276.47
2022-11-29T01:38:16.049Z,99272.05
2022-11-29T01:38:26.080Z,99273.84
2022-11-29T01:38:36.030Z,99274.67
2022-11-29T01:38:46.040Z,99273.22
2022-11-29T01:38:56.054Z,99275.48
2022-11-29T01:39:06.091Z,99275.30
2022-11-29T01:39:16.012Z,99274.83
2022-11-29T01:39:25.990Z,99277.00
2022-11-29T01:39:36.079Z,99275.66
2022-11-29T01:39:46.014Z,99276.48
2022-11-29T01:39:55.968Z,99273.70
2022-11-29T01:40:05.974Z,99275.89
2022-11-29T01:40:16.052Z,99275.50
2022-11-29T01:40:25.991Z,99273.97
2022-11-29T01:40:36.019Z,99278.52
2022-11-29T01:40:45.951Z,99273.75
2022-11-29T01:40:56.061Z,99275.20
2022-11-29T01:41:06.037Z,99272.25
2022-11-29T01:41:15.975Z,99275.92
2022-11-29T01:41:25.995Z,99273.73
2022-11-29T01:41:36.072Z,99275.11
2022-11-29T01:41:46.074Z,99275.45
2022-11-29T01:41:55.949Z,99275.20
2022-11-29T01:42:06.095Z,99272.14
2022-11-29T01:42:16.031Z,99274.14
2022-11-29T01:42:25.967Z,99277.10
2022-11-29T01:42:36.086Z,99276.25
2022-11-29T01:42:46.048Z,99278.72
2022-11-29T01:42:56.015Z,99277.73
2022-11-29T01:43:06.009Z,99278.15
2022-11-29T01:43:16.062Z,99279.08
2022-11-29T01:43:26.054Z,99274.12
2022-11-29T01:43:35.955Z,99273.71
2022-11-29T01:43:45.987Z,99279.14
2022-11-29T01:43:55.984Z,99278.41
2022-11-29T01:44:06.034Z,99283.41
2022-11-29T01:44:16.040Z,99280.12
2022-11-29T01:44:25.970Z,99282.53
2022-11-29T01:44:36.028Z,99277.49
2022-11-29T01:44:46.262Z,99283.03
2022-11-29T01:44:56.013Z,99280.12
2022-11-29T01:45:05.949Z,99281.77
2022-11-29T01:45:16.062Z,99281.02
2022-11-29T01:45:25.969Z,99279.05
2022-11-29T01:45:36.036Z,99280.86
2022-11-29T01:45:46.016Z,99279.80
2022-11-29T01:45:56.095Z,99281.11
2022-11-29T01:46:06.038Z,99279.52
2022-11-29T01:46:16.013Z,99282.19
2022-11-29T01:46:26.121Z,99282.34
2022-11-29T01:46:35.961Z,99279.28
2022-11-29T01:46:46.073Z,99280.16
2022-11-29T01:46:56.077Z,99278.70
2022-11-29T01:47:06.069Z,99279.34
2022-11-29T01:47:16.093Z,99280.56
2022-11-29T01:47:26.012Z,99281.30
2022-11-29T01:47:35.963Z,99275.50
2022-11-29T01:47:46.073Z,99279.39
2022-11-29T01:47:55.985Z,99277.66
2022-11-29T01:48:06.090Z,99276.52
2022-11-29T01:48:16.065Z,99275.97
2022-11-29T01:48:26.008Z,99279.27
2022-11-29T01:48:35.955Z,99281.48
2022-11-29T01:48:46.015Z,99279.16
2022-11-29T01:48:56.050Z,99276.47
2022-11-29T01:49:06.075Z,99278.07
2022-11-29T01:49:16.044Z,99279.66
2022-11-29T01:49:25.958Z,99276.95
2022-11-29T01:49:36.026Z,99282.19
2022-11-29T01:49:45.959Z,99278.12
2022-11-29T01:49:55.980Z,99275.11
2022-11-29T01:50:06.051Z,99277.35
2022-11-29T01:50:16.098Z,99276.95
2022-11-29T01:50:26.032Z,99280.07
2022-11-29T01:50:35.967Z,99273.30
2022-11-29T01:50:45.974Z,99281.24
2022-11-29T01:50:56.055Z,99277.08
2022-11-29T01:51:06.058Z,99281.08
2022-11-29T01:51:16.013Z,99278.45
2022-11-29T01:51:26.001Z,99274.62
2022-11-29T01:51:36.012Z,99274.56
2022-11-29T01:51:45.977Z,99274.45
2022-11-29T01:51:55.952Z,99274.45
2022-11-29T01:52:06.081Z,99273.90
2022-11-29T01:52:16.060Z,99276.14
2022-11-29T01:52:26.067Z,99275.22
2022-11-29T01:52:36.019Z,99281.41
2022-11-29T01:52:46.038Z,99277.69
2022-11-29T01:52:55.989Z,99279.88
2022-11-29T01:53:06.085Z,99278.34
2022-11-29T01:53:15.965Z,99276.27
2022-11-29T01:53:26.004Z,99276.37
2022-11-29T01:53:36.079Z,99275.27
2022-11-29T01:53:45.990Z,99279.72
2022-11-29T01:53:55.962Z,99278.78
2022-11-29T01:54:05.972Z,99276.95
2022-11-29T01:54:15.951Z,99278.73
2022-11-29T01:54:26.071Z,99274.16
2022-11-29T01:54:36.037Z,99277.77
2022-11-29T01:54:46.267Z,99269.86
2022-11-29T01:54:55.969Z,99278.92
2022-11-29T01:55:06.037Z,99279.20
2022-11-29T01:55:16.025Z,99276.90
2022-11-29T01:55:26.064Z,99275.45
2022-11-29T01:55:36.059Z,99279.36
2022-11-29T01:55:46.148Z,99278.22
2022-11-29T01:55:56.063Z,99278.73
2022-11-29T01:56:06.112Z,99277.89
2022-11-29T01:56:16.083Z,99274.84
2022-11-29T01:56:26.045Z,99277.75
2022-11-29T01:56:35.981Z,99278.91
2022-11-29T01:56:46.037Z,99279.16
2022-11-29T01:56:56.003Z,99278.91
2022-11-29T01:57:06.056Z,99277.17
2022-11-29T01:57:15.964Z,99283.09
2022-11-29T01:57:25.968Z,99284.98